sensor_id;sensor_type;location;lat;lon;timestamp;pressure;altitude;pressure_sealevel;temperature;humidity
74336;BME280;62755;-33.398;-70.572;2023-02-10T00:01:31;92720.22;;;29.82;28.53
74336;BME280;62755;-33.398;-70.572;2023-02-10T00:04:22;92720.22;;;29.82;28.73
74336;BME280;62755;-33.398;-70.572;2023-02-10T00:07:11;92725.34;;;29.78;29.04
74336;BME280;62755;-33.398;-70.572;2023-02-10T00:10:00;92704.19;;;29.60;28.94
74336;BME280;62755;-33.398;-70.572;2023-02-10T00:12:50;92725.44;;;29.44;29.57
74336;BME280;62755;-33.398;-70.572;2023-02-10T00:15:39;92727.44;;;29.43;29.61
74336;BME280;62755;-33.398;-70.572;2023-02-10T00:18:29;92715.91;;;29.52;29.50
74336;BME280;62755;-33.398;-70.572;2023-02-10T00:21:20;92727.16;;;29.55;29.24
74336;BME280;62755;-33.398;-70.572;2023-02-10T00:24:09;92736.00;;;29.53;28.95
74336;BME280;62755;-33.398;-70.572;2023-02-10T00:26:59;92735.66;;;29.57;29.57
74336;BME280;62755;-33.398;-70.572;2023-02-10T00:29:48;92735.19;;;29.45;29.18
74336;BME280;62755;-33.398;-70.572;2023-02-10T00:32:37;92721.22;;;29.22;29.65
74336;BME280;62755;-33.398;-70.572;2023-02-10T00:35:27;92742.28;;;29.33;29.35
74336;BME280;62755;-33.398;-70.572;2023-02-10T00:38:18;92751.19;;;29.18;29.73
74336;BME280;62755;-33.398;-70.572;2023-02-10T00:41:09;92741.81;;;29.21;29.88
74336;BME280;62755;-33.398;-70.572;2023-02-10T00:43:58;92751.19;;;29.18;29.71
74336;BME280;62755;-33.398;-70.572;2023-02-10T00:46:48;92749.94;;;29.06;30.38
74336;BME280;62755;-33.398;-70.572;2023-02-10T00:49:37;92752.19;;;29.28;30.22
74336;BME280;62755;-33.398;-70.572;2023-02-10T00:52:26;92750.22;;;29.16;29.93
74336;BME280;62755;-33.398;-70.572;2023-02-10T00:55:17;92758.56;;;29.03;29.94
74336;BME280;62755;-33.398;-70.572;2023-02-10T00:58:07;92757.31;;;29.24;30.47
74336;BME280;62755;-33.398;-70.572;2023-02-10T01:00:57;92762.44;;;29.20;30.40
74336;BME280;62755;-33.398;-70.572;2023-02-10T01:03:46;92758.78;;;29.25;30.26
74336;BME280;62755;-33.398;-70.572;2023-02-10T01:06:35;92769.44;;;29.21;30.78
74336;BME280;62755;-33.398;-70.572;2023-02-10T01:09:25;92770.53;;;29.18;30.43
74336;BME280;62755;-33.398;-70.572;2023-02-10T01:12:16;92775.00;;;29.08;30.70
74336;BME280;62755;-33.398;-70.572;2023-02-10T01:15:05;92765.34;;;29.02;31.14
74336;BME280;62755;-33.398;-70.572;2023-02-10T01:17:55;92765.81;;;28.93;31.23
74336;BME280;62755;-33.398;-70.572;2023-02-10T01:20:44;92765.56;;;28.70;31.14
74336;BME280;62755;-33.398;-70.572;2023-02-10T01:23:34;92772.31;;;28.82;31.57
74336;BME280;62755;-33.398;-70.572;2023-02-10T01:26:23;92766.19;;;28.76;31.33
74336;BME280;62755;-33.398;-70.572;2023-02-10T01:29:14;92774.38;;;28.69;31.56
74336;BME280;62755;-33.398;-70.572;2023-02-10T01:32:04;92772.41;;;28.90;30.82
74336;BME280;62755;-33.398;-70.572;2023-02-10T01:34:53;92756.84;;;28.66;31.15
74336;BME280;62755;-33.398;-70.572;2023-02-10T01:37:42;92751.88;;;28.64;31.57
74336;BME280;62755;-33.398;-70.572;2023-02-10T01:40:32;92772.78;;;28.60;30.91
74336;BME280;62755;-33.398;-70.572;2023-02-10T01:43:21;92773.88;;;28.57;32.09
74336;BME280;62755;-33.398;-70.572;2023-02-10T01:46:12;92773.72;;;28.76;31.48
74336;BME280;62755;-33.398;-70.572;2023-02-10T01:49:05;92765.00;;;28.85;31.68
74336;BME280;62755;-33.398;-70.572;2023-02-10T01:51:59;92767.41;;;28.88;32.12
74336;BME280;62755;-33.398;-70.572;2023-02-10T01:54:51;92774.47;;;28.76;32.16
74336;BME280;62755;-33.398;-70.572;2023-02-10T01:57:44;92772.28;;;28.95;31.84
74336;BME280;62755;-33.398;-70.572;2023-02-10T02:00:33;92768.56;;;28.59;32.09
74336;BME280;62755;-33.398;-70.572;2023-02-10T02:03:25;92775.06;;;28.95;31.37
74336;BME280;62755;-33.398;-70.572;2023-02-10T02:06:15;92778.88;;;28.92;32.12
74336;BME280;62755;-33.398;-70.572;2023-02-10T02:09:04;92777.84;;;28.82;32.83
74336;BME280;62755;-33.398;-70.572;2023-02-10T02:11:57;92772.84;;;28.81;32.61
74336;BME280;62755;-33.398;-70.572;2023-02-10T02:14:53;92776.44;;;28.89;33.10
74336;BME280;62755;-33.398;-70.572;2023-02-10T02:17:50;92777.84;;;28.82;33.41
74336;BME280;62755;-33.398;-70.572;2023-02-10T02:21:17;92778.25;;;28.86;33.31
74336;BME280;62755;-33.398;-70.572;2023-02-10T02:24:26;92778.59;;;28.83;33.40
74336;BME280;62755;-33.398;-70.572;2023-02-10T02:27:24;92777.84;;;28.82;33.39
74336;BME280;62755;-33.398;-70.572;2023-02-10T02:33:40;92778.31;;;28.60;34.43
74336;BME280;62755;-33.398;-70.572;2023-02-10T02:36:35;92782.16;;;28.57;33.82
74336;BME280;62755;-33.398;-70.572;2023-02-10T02:39:27;92783.41;;;28.56;34.27
74336;BME280;62755;-33.398;-70.572;2023-02-10T02:42:19;92781.81;;;28.47;34.27
74336;BME280;62755;-33.398;-70.572;2023-02-10T02:45:11;92788.53;;;28.26;33.99
74336;BME280;62755;-33.398;-70.572;2023-02-10T02:48:21;92780.91;;;28.32;34.18
74336;BME280;62755;-33.398;-70.572;2023-02-10T02:51:20;92782.59;;;28.22;34.37
74336;BME280;62755;-33.398;-70.572;2023-02-10T02:54:21;92788.53;;;28.39;33.39
74336;BME280;62755;-33.398;-70.572;2023-02-10T02:57:18;92777.09;;;28.22;33.16
74336;BME280;62755;-33.398;-70.572;2023-02-10T03:00:12;92779.22;;;28.16;34.14
74336;BME280;62755;-33.398;-70.572;2023-02-10T03:03:04;92783.03;;;28.26;33.52
74336;BME280;62755;-33.398;-70.572;2023-02-10T03:05:54;92784.91;;;28.31;33.49
74336;BME280;62755;-33.398;-70.572;2023-02-10T03:08:49;92783.44;;;28.30;34.43
74336;BME280;62755;-33.398;-70.572;2023-02-10T03:11:38;92777.84;;;28.22;33.16
74336;BME280;62755;-33.398;-70.572;2023-02-10T03:14:27;92783.66;;;28.19;33.39
74336;BME280;62755;-33.398;-70.572;2023-02-10T03:17:17;92770.50;;;28.25;32.39
74336;BME280;62755;-33.398;-70.572;2023-02-10T03:20:07;92782.41;;;28.07;33.82
74336;BME280;62755;-33.398;-70.572;2023-02-10T03:22:57;92775.50;;;28.13;33.42
74336;BME280;62755;-33.398;-70.572;2023-02-10T03:25:48;92771.13;;;27.92;33.01
74336;BME280;62755;-33.398;-70.572;2023-02-10T03:28:55;92775.19;;;28.04;32.95
74336;BME280;62755;-33.398;-70.572;2023-02-10T03:31:57;92776.88;;;28.07;33.90
74336;BME280;62755;-33.398;-70.572;2023-02-10T03:34:48;92784.53;;;28.01;33.57
74336;BME280;62755;-33.398;-70.572;2023-02-10T03:37:38;92782.78;;;27.85;33.41
74336;BME280;62755;-33.398;-70.572;2023-02-10T03:40:27;92768.56;;;27.67;33.78
74336;BME280;62755;-33.398;-70.572;2023-02-10T03:43:18;92783.34;;;27.96;34.24
74336;BME280;62755;-33.398;-70.572;2023-02-10T03:46:09;92787.75;;;27.86;34.20
74336;BME280;62755;-33.398;-70.572;2023-02-10T03:48:58;92779.00;;;28.01;34.35
74336;BME280;62755;-33.398;-70.572;2023-02-10T03:51:48;92762.47;;;28.01;34.08
74336;BME280;62755;-33.398;-70.572;2023-02-10T03:54:37;92766.78;;;28.09;33.74
74336;BME280;62755;-33.398;-70.572;2023-02-10T03:57:26;92757.97;;;27.85;34.63
74336;BME280;62755;-33.398;-70.572;2023-02-10T04:00:18;92763.38;;;27.77;34.58
74336;BME280;62755;-33.398;-70.572;2023-02-10T04:03:08;92765.94;;;27.75;32.90
74336;BME280;62755;-33.398;-70.572;2023-02-10T04:05:57;92757.13;;;27.90;32.47
74336;BME280;62755;-33.398;-70.572;2023-02-10T04:08:47;92749.59;;;27.77;32.72
74336;BME280;62755;-33.398;-70.572;2023-02-10T04:11:36;92750.44;;;27.72;34.08
74336;BME280;62755;-33.398;-70.572;2023-02-10T04:14:26;92754.16;;;27.61;34.11
74336;BME280;62755;-33.398;-70.572;2023-02-10T04:17:17;92757.94;;;27.45;34.10
74336;BME280;62755;-33.398;-70.572;2023-02-10T04:20:08;92754.75;;;27.41;34.67
74336;BME280;62755;-33.398;-70.572;2023-02-10T04:22:57;92752.13;;;27.30;34.06
74336;BME280;62755;-33.398;-70.572;2023-02-10T04:25:46;92752.75;;;27.10;34.76
74336;BME280;62755;-33.398;-70.572;2023-02-10T04:28:36;92757.44;;;27.28;34.02
74336;BME280;62755;-33.398;-70.572;2023-02-10T04:31:25;92750.72;;;27.42;33.92
74336;BME280;62755;-33.398;-70.572;2023-02-10T04:34:16;92752.22;;;27.43;33.92
74336;BME280;62755;-33.398;-70.572;2023-02-10T04:37:05;92749.16;;;27.28;33.62
74336;BME280;62755;-33.398;-70.572;2023-02-10T04:39:55;92753.19;;;27.27;33.67
74336;BME280;62755;-33.398;-70.572;2023-02-10T04:42:44;92750.00;;;27.10;33.40
74336;BME280;62755;-33.398;-70.572;2023-02-10T04:45:33;92745.63;;;27.33;33.89
74336;BME280;62755;-33.398;-70.572;2023-02-10T04:48:23;92747.09;;;27.34;33.85
74336;BME280;62755;-33.398;-70.572;2023-02-10T04:51:14;92738.59;;;27.32;33.46
74336;BME280;62755;-33.398;-70.572;2023-02-10T04:54:03;92750.94;;;27.44;33.71
74336;BME280;62755;-33.398;-70.572;2023-02-10T04:56:53;92741.28;;;27.06;34.16
74336;BME280;62755;-33.398;-70.572;2023-02-10T04:59:42;92746.75;;;26.93;34.08
74336;BME280;62755;-33.398;-70.572;2023-02-10T05:02:32;92728.13;;;26.99;34.03
74336;BME280;62755;-33.398;-70.572;2023-02-10T05:05:22;92742.50;;;27.24;33.61
74336;BME280;62755;-33.398;-70.572;2023-02-10T05:08:14;92748.22;;;27.26;33.48
74336;BME280;62755;-33.398;-70.572;2023-02-10T05:11:06;92749.16;;;27.28;33.77
74336;BME280;62755;-33.398;-70.572;2023-02-10T05:13:55;92734.94;;;27.11;33.81
74336;BME280;62755;-33.398;-70.572;2023-02-10T05:16:45;92737.47;;;27.09;33.54
74336;BME280;62755;-33.398;-70.572;2023-02-10T05:19:35;92733.75;;;27.07;32.50
74336;BME280;62755;-33.398;-70.572;2023-02-10T05:22:24;92742.66;;;27.13;32.53
74336;BME280;62755;-33.398;-70.572;2023-02-10T05:25:23;92744.28;;;27.21;32.16
74336;BME280;62755;-33.398;-70.572;2023-02-10T05:28:12;92721.59;;;27.02;32.55
74336;BME280;62755;-33.398;-70.572;2023-02-10T05:31:02;92735.69;;;27.12;32.17
74336;BME280;62755;-33.398;-70.572;2023-02-10T05:33:53;92723.25;;;26.92;32.56
74336;BME280;62755;-33.398;-70.572;2023-02-10T05:36:42;92730.59;;;26.71;33.37
74336;BME280;62755;-33.398;-70.572;2023-02-10T05:39:32;92720.75;;;26.57;32.64
74336;BME280;62755;-33.398;-70.572;2023-02-10T05:42:23;92723.00;;;26.77;32.58
74336;BME280;62755;-33.398;-70.572;2023-02-10T05:45:12;92720.53;;;26.73;32.39
74336;BME280;62755;-33.398;-70.572;2023-02-10T05:48:01;92716.34;;;26.67;31.83
74336;BME280;62755;-33.398;-70.572;2023-02-10T05:50:51;92711.34;;;26.65;31.57
74336;BME280;62755;-33.398;-70.572;2023-02-10T05:53:40;92711.22;;;26.58;31.13
74336;BME280;62755;-33.398;-70.572;2023-02-10T05:56:30;92718.09;;;26.51;31.48
74336;BME280;62755;-33.398;-70.572;2023-02-10T05:59:21;92717.78;;;26.55;31.67
74336;BME280;62755;-33.398;-70.572;2023-02-10T06:02:10;92706.06;;;26.36;31.34
74336;BME280;62755;-33.398;-70.572;2023-02-10T06:04:59;92710.50;;;26.39;31.27
74336;BME280;62755;-33.398;-70.572;2023-02-10T06:07:49;92709.75;;;26.57;30.67
74336;BME280;62755;-33.398;-70.572;2023-02-10T06:10:38;92712.03;;;26.71;29.09
74336;BME280;62755;-33.398;-70.572;2023-02-10T06:13:27;92708.81;;;26.67;29.35
74336;BME280;62755;-33.398;-70.572;2023-02-10T06:16:18;92698.31;;;26.53;30.09
74336;BME280;62755;-33.398;-70.572;2023-02-10T06:19:08;92706.59;;;26.66;29.83
74336;BME280;62755;-33.398;-70.572;2023-02-10T06:21:57;92706.16;;;26.62;30.30
74336;BME280;62755;-33.398;-70.572;2023-02-10T06:24:46;92706.66;;;26.47;30.03
74336;BME280;62755;-33.398;-70.572;2023-02-10T06:27:35;92702.16;;;26.63;29.57
74336;BME280;62755;-33.398;-70.572;2023-02-10T06:30:25;92703.19;;;26.60;29.97
74336;BME280;62755;-33.398;-70.572;2023-02-10T06:33:16;92708.09;;;26.67;29.69
74336;BME280;62755;-33.398;-70.572;2023-02-10T06:36:06;92689.16;;;26.95;29.83
74336;BME280;62755;-33.398;-70.572;2023-02-10T06:38:56;92695.75;;;26.73;29.67
74336;BME280;62755;-33.398;-70.572;2023-02-10T06:41:45;92701.63;;;26.64;29.25
74336;BME280;62755;-33.398;-70.572;2023-02-10T06:44:34;92696.03;;;26.70;29.75
74336;BME280;62755;-33.398;-70.572;2023-02-10T06:47:24;92664.88;;;26.49;29.89
74336;BME280;62755;-33.398;-70.572;2023-02-10T06:50:16;92689.53;;;26.73;30.29
74336;BME280;62755;-33.398;-70.572;2023-02-10T06:53:05;92692.63;;;26.64;29.71
74336;BME280;62755;-33.398;-70.572;2023-02-10T06:55:56;92678.78;;;26.69;28.99
74336;BME280;62755;-33.398;-70.572;2023-02-10T06:58:45;92692.81;;;26.53;29.93
74336;BME280;62755;-33.398;-70.572;2023-02-10T07:01:35;92680.03;;;26.37;29.34
74336;BME280;62755;-33.398;-70.572;2023-02-10T07:04:24;92684.06;;;26.36;28.21
74336;BME280;62755;-33.398;-70.572;2023-02-10T07:07:15;92685.97;;;26.41;28.38
74336;BME280;62755;-33.398;-70.572;2023-02-10T07:10:06;92686.56;;;26.52;28.15
74336;BME280;62755;-33.398;-70.572;2023-02-10T07:12:55;92683.81;;;26.52;28.79
74336;BME280;62755;-33.398;-70.572;2023-02-10T07:15:45;92683.00;;;26.39;28.48
74336;BME280;62755;-33.398;-70.572;2023-02-10T07:18:34;92695.34;;;26.51;28.64
74336;BME280;62755;-33.398;-70.572;2023-02-10T07:21:24;92690.59;;;26.33;28.43
74336;BME280;62755;-33.398;-70.572;2023-02-10T07:24:15;92690.28;;;26.55;28.04
74336;BME280;62755;-33.398;-70.572;2023-02-10T07:27:05;92682.69;;;26.42;28.03
74336;BME280;62755;-33.398;-70.572;2023-02-10T07:29:55;92685.53;;;26.37;28.41
74336;BME280;62755;-33.398;-70.572;2023-02-10T07:32:44;92694.00;;;26.39;29.41
74336;BME280;62755;-33.398;-70.572;2023-02-10T07:35:34;92681.53;;;26.38;28.80
74336;BME280;62755;-33.398;-70.572;2023-02-10T07:38:23;92686.38;;;26.32;29.24
74336;BME280;62755;-33.398;-70.572;2023-02-10T07:41:14;92686.66;;;26.47;29.42
74336;BME280;62755;-33.398;-70.572;2023-02-10T07:44:04;92685.81;;;26.52;29.45
74336;BME280;62755;-33.398;-70.572;2023-02-10T07:46:53;92687.44;;;26.42;29.59
74336;BME280;62755;-33.398;-70.572;2023-02-10T07:49:42;92689.41;;;26.47;29.17
74336;BME280;62755;-33.398;-70.572;2023-02-10T07:52:32;92677.22;;;26.24;28.58
74336;BME280;62755;-33.398;-70.572;2023-02-10T07:55:21;92685.09;;;26.33;29.48
74336;BME280;62755;-33.398;-70.572;2023-02-10T07:58:12;92692.00;;;26.21;30.15
74336;BME280;62755;-33.398;-70.572;2023-02-10T08:01:06;92683.97;;;26.04;29.89
74336;BME280;62755;-33.398;-70.572;2023-02-10T08:03:55;92687.63;;;26.12;30.20
74336;BME280;62755;-33.398;-70.572;2023-02-10T08:06:45;92678.41;;;26.09;29.57
74336;BME280;62755;-33.398;-70.572;2023-02-10T08:09:34;92683.44;;;26.05;30.41
74336;BME280;62755;-33.398;-70.572;2023-02-10T08:12:24;92681.00;;;26.21;31.09
74336;BME280;62755;-33.398;-70.572;2023-02-10T08:15:16;92668.91;;;26.10;29.68
74336;BME280;62755;-33.398;-70.572;2023-02-10T08:18:05;92684.22;;;26.06;29.95
74336;BME280;62755;-33.398;-70.572;2023-02-10T08:20:54;92673.47;;;26.02;30.21
74336;BME280;62755;-33.398;-70.572;2023-02-10T08:23:47;92679.84;;;25.73;30.55
74336;BME280;62755;-33.398;-70.572;2023-02-10T08:26:41;92682.81;;;25.75;30.86
74336;BME280;62755;-33.398;-70.572;2023-02-10T08:29:31;92679.84;;;25.73;31.45
74336;BME280;62755;-33.398;-70.572;2023-02-10T08:32:22;92697.38;;;25.70;30.88
74336;BME280;62755;-33.398;-70.572;2023-02-10T08:35:11;92687.28;;;25.78;31.48
74336;BME280;62755;-33.398;-70.572;2023-02-10T08:38:01;92693.84;;;25.94;31.43
74336;BME280;62755;-33.398;-70.572;2023-02-10T08:40:55;92696.28;;;25.97;31.95
74336;BME280;62755;-33.398;-70.572;2023-02-10T08:43:44;92696.97;;;26.03;33.28
74336;BME280;62755;-33.398;-70.572;2023-02-10T08:46:34;92699.47;;;26.01;32.44
74336;BME280;62755;-33.398;-70.572;2023-02-10T08:49:25;92688.13;;;25.92;32.80
74336;BME280;62755;-33.398;-70.572;2023-02-10T08:52:15;92700.06;;;25.94;32.38
74336;BME280;62755;-33.398;-70.572;2023-02-10T08:55:05;92694.25;;;25.79;32.35
74336;BME280;62755;-33.398;-70.572;2023-02-10T08:57:54;92712.47;;;25.82;32.25
74336;BME280;62755;-33.398;-70.572;2023-02-10T09:00:43;92715.66;;;25.86;31.96
74336;BME280;62755;-33.398;-70.572;2023-02-10T09:03:33;92713.59;;;25.92;31.61
74336;BME280;62755;-33.398;-70.572;2023-02-10T09:06:26;92714.16;;;25.85;31.78
74336;BME280;62755;-33.398;-70.572;2023-02-10T09:09:18;92703.00;;;25.78;31.81
74336;BME280;62755;-33.398;-70.572;2023-02-10T09:12:09;92712.91;;;25.86;32.48
74336;BME280;62755;-33.398;-70.572;2023-02-10T09:14:59;92715.78;;;25.75;32.06
74336;BME280;62755;-33.398;-70.572;2023-02-10T09:17:48;92707.59;;;25.70;32.20
74336;BME280;62755;-33.398;-70.572;2023-02-10T09:20:38;92716.22;;;25.79;31.30
74336;BME280;62755;-33.398;-70.572;2023-02-10T09:23:29;92723.47;;;25.58;31.27
74336;BME280;62755;-33.398;-70.572;2023-02-10T09:26:19;92726.38;;;25.12;31.27
74336;BME280;62755;-33.398;-70.572;2023-02-10T09:29:08;92734.34;;;24.86;31.70
74336;BME280;62755;-33.398;-70.572;2023-02-10T09:31:59;92729.84;;;24.83;31.96
74336;BME280;62755;-33.398;-70.572;2023-02-10T09:34:48;92731.25;;;24.95;32.38
74336;BME280;62755;-33.398;-70.572;2023-02-10T09:37:38;92735.50;;;24.96;31.98
74336;BME280;62755;-33.398;-70.572;2023-02-10T09:40:32;92727.16;;;24.77;32.18
74336;BME280;62755;-33.398;-70.572;2023-02-10T09:43:37;92737.59;;;24.79;31.91
74336;BME280;62755;-33.398;-70.572;2023-02-10T09:46:46;92736.97;;;24.62;32.22
74336;BME280;62755;-33.398;-70.572;2023-02-10T09:50:10;92726.84;;;24.46;32.60
74336;BME280;62755;-33.398;-70.572;2023-02-10T09:53:09;92753.03;;;24.47;32.69
74336;BME280;62755;-33.398;-70.572;2023-02-10T09:56:02;92744.19;;;24.65;32.49
74336;BME280;62755;-33.398;-70.572;2023-02-10T09:58:54;92756.16;;;24.62;31.63
74336;BME280;62755;-33.398;-70.572;2023-02-10T10:01:46;92750.25;;;24.52;31.62
74336;BME280;62755;-33.398;-70.572;2023-02-10T10:04:38;92757.31;;;24.77;31.83
74336;BME280;62755;-33.398;-70.572;2023-02-10T10:07:31;92762.81;;;24.72;31.42
74336;BME280;62755;-33.398;-70.572;2023-02-10T10:10:26;92757.09;;;24.70;31.22
74336;BME280;62755;-33.398;-70.572;2023-02-10T10:13:22;92754.72;;;24.50;31.32
74336;BME280;62755;-33.398;-70.572;2023-02-10T10:16:23;92770.47;;;24.43;30.62
74336;BME280;62755;-33.398;-70.572;2023-02-10T10:19:22;92783.41;;;24.49;30.49
74336;BME280;62755;-33.398;-70.572;2023-02-10T10:22:29;92783.41;;;24.49;31.59
74336;BME280;62755;-33.398;-70.572;2023-02-10T10:25:42;92785.13;;;24.52;31.40
74336;BME280;62755;-33.398;-70.572;2023-02-10T10:28:43;92792.84;;;24.53;32.13
74336;BME280;62755;-33.398;-70.572;2023-02-10T10:31:39;92788.59;;;24.58;32.61
74336;BME280;62755;-33.398;-70.572;2023-02-10T10:34:30;92787.03;;;24.68;32.30
74336;BME280;62755;-33.398;-70.572;2023-02-10T10:37:22;92787.59;;;24.61;31.19
74336;BME280;62755;-33.398;-70.572;2023-02-10T10:40:17;92765.19;;;24.51;31.96
74336;BME280;62755;-33.398;-70.572;2023-02-10T10:43:14;92769.88;;;24.62;32.21
74336;BME280;62755;-33.398;-70.572;2023-02-10T10:46:14;92793.88;;;24.91;32.25
74336;BME280;62755;-33.398;-70.572;2023-02-10T10:49:04;92795.44;;;24.81;32.72
74336;BME280;62755;-33.398;-70.572;2023-02-10T10:51:53;92802.44;;;24.82;32.38
74336;BME280;62755;-33.398;-70.572;2023-02-10T10:54:43;92805.47;;;24.67;31.86
74336;BME280;62755;-33.398;-70.572;2023-02-10T10:57:32;92808.44;;;24.75;31.87
74336;BME280;62755;-33.398;-70.572;2023-02-10T11:00:23;92805.22;;;24.76;32.33
74336;BME280;62755;-33.398;-70.572;2023-02-10T11:03:16;92808.63;;;24.88;32.30
74336;BME280;62755;-33.398;-70.572;2023-02-10T11:06:08;92796.47;;;24.78;31.99
74336;BME280;62755;-33.398;-70.572;2023-02-10T11:09:01;92798.47;;;24.72;31.75
74336;BME280;62755;-33.398;-70.572;2023-02-10T11:11:51;92805.47;;;24.73;30.27
74336;BME280;62755;-33.398;-70.572;2023-02-10T11:14:43;92809.44;;;24.72;29.95
74336;BME280;62755;-33.398;-70.572;2023-02-10T11:17:35;92810.25;;;24.61;30.03
74336;BME280;62755;-33.398;-70.572;2023-02-10T11:20:29;92807.53;;;24.56;29.99
74336;BME280;62755;-33.398;-70.572;2023-02-10T11:23:19;92803.38;;;24.43;29.74
74336;BME280;62755;-33.398;-70.572;2023-02-10T11:26:19;92815.44;;;24.76;29.31
74336;BME280;62755;-33.398;-70.572;2023-02-10T11:29:10;92815.00;;;24.61;29.87
74336;BME280;62755;-33.398;-70.572;2023-02-10T11:32:01;92819.41;;;24.75;29.53
74336;BME280;62755;-33.398;-70.572;2023-02-10T11:34:52;92827.53;;;24.51;30.02
74336;BME280;62755;-33.398;-70.572;2023-02-10T11:37:44;92810.84;;;24.49;29.72
74336;BME280;62755;-33.398;-70.572;2023-02-10T11:40:51;92822.44;;;24.66;29.53
74336;BME280;62755;-33.398;-70.572;2023-02-10T11:43:42;92832.00;;;24.94;29.56
74336;BME280;62755;-33.398;-70.572;2023-02-10T11:46:31;92846.72;;;24.97;29.54
74336;BME280;62755;-33.398;-70.572;2023-02-10T11:49:21;92844.94;;;25.05;28.79
74336;BME280;62755;-33.398;-70.572;2023-02-10T11:52:11;92852.03;;;25.24;28.59
74336;BME280;62755;-33.398;-70.572;2023-02-10T11:55:02;92856.94;;;25.02;29.83
74336;BME280;62755;-33.398;-70.572;2023-02-10T11:57:57;92845.72;;;24.94;29.78
74336;BME280;62755;-33.398;-70.572;2023-02-10T12:01:09;92857.94;;;25.34;28.39
74336;BME280;62755;-33.398;-70.572;2023-02-10T12:04:13;92869.78;;;25.18;29.36
74336;BME280;62755;-33.398;-70.572;2023-02-10T12:07:09;92864.41;;;25.42;29.86
74336;BME280;62755;-33.398;-70.572;2023-02-10T12:10:12;92873.47;;;25.26;31.12
74336;BME280;62755;-33.398;-70.572;2023-02-10T12:13:15;92873.28;;;25.18;32.14
74336;BME280;62755;-33.398;-70.572;2023-02-10T12:16:14;92867.44;;;25.33;32.20
74336;BME280;62755;-33.398;-70.572;2023-02-10T12:19:16;92875.22;;;25.29;33.42
74336;BME280;62755;-33.398;-70.572;2023-02-10T12:22:15;92869.81;;;25.53;33.10
74336;BME280;62755;-33.398;-70.572;2023-02-10T12:25:16;92864.31;;;25.53;33.26
74336;BME280;62755;-33.398;-70.572;2023-02-10T12:28:14;92877.59;;;25.49;33.83
74336;BME280;62755;-33.398;-70.572;2023-02-10T12:31:14;92873.34;;;25.48;33.50
74336;BME280;62755;-33.398;-70.572;2023-02-10T12:34:15;92875.31;;;25.53;32.77
74336;BME280;62755;-33.398;-70.572;2023-02-10T12:37:20;92868.72;;;25.62;32.74
74336;BME280;62755;-33.398;-70.572;2023-02-10T12:40:42;92887.44;;;25.93;31.83
74336;BME280;62755;-33.398;-70.572;2023-02-10T12:43:45;92891.28;;;25.84;31.86
74336;BME280;62755;-33.398;-70.572;2023-02-10T12:46:45;92886.72;;;25.87;32.00
74336;BME280;62755;-33.398;-70.572;2023-02-10T12:49:48;92889.44;;;25.92;31.95
74336;BME280;62755;-33.398;-70.572;2023-02-10T12:52:42;92890.09;;;26.04;31.74
74336;BME280;62755;-33.398;-70.572;2023-02-10T12:55:43;92891.06;;;26.06;31.41
74336;BME280;62755;-33.398;-70.572;2023-02-10T12:58:39;92886.63;;;26.28;31.70
74336;BME280;62755;-33.398;-70.572;2023-02-10T13:01:33;92888.41;;;26.44;31.62
74336;BME280;62755;-33.398;-70.572;2023-02-10T13:04:25;92893.44;;;26.64;30.97
74336;BME280;62755;-33.398;-70.572;2023-02-10T13:07:23;92894.72;;;26.63;30.88
74336;BME280;62755;-33.398;-70.572;2023-02-10T13:10:24;92894.38;;;26.72;30.33
74336;BME280;62755;-33.398;-70.572;2023-02-10T13:13:19;92892.53;;;26.80;29.72
74336;BME280;62755;-33.398;-70.572;2023-02-10T13:16:12;92888.06;;;26.77;29.98
74336;BME280;62755;-33.398;-70.572;2023-02-10T13:19:07;92891.06;;;26.79;30.18
74336;BME280;62755;-33.398;-70.572;2023-02-10T13:22:07;92893.44;;;26.88;30.40
74336;BME280;62755;-33.398;-70.572;2023-02-10T13:25:03;92891.69;;;26.85;30.24
74336;BME280;62755;-33.398;-70.572;2023-02-10T13:28:05;92894.69;;;26.87;30.42
74336;BME280;62755;-33.398;-70.572;2023-02-10T13:31:19;92891.50;;;27.02;30.10
74336;BME280;62755;-33.398;-70.572;2023-02-10T13:34:18;92898.19;;;27.06;29.70
74336;BME280;62755;-33.398;-70.572;2023-02-10T13:37:12;92899.91;;;27.09;29.43
74336;BME280;62755;-33.398;-70.572;2023-02-10T13:40:12;92899.22;;;26.84;30.09
74336;BME280;62755;-33.398;-70.572;2023-02-10T13:43:03;92905.19;;;26.88;30.25
74336;BME280;62755;-33.398;-70.572;2023-02-10T13:45:54;92898.34;;;26.95;30.18
74336;BME280;62755;-33.398;-70.572;2023-02-10T13:48:50;92910.41;;;26.92;29.93
74336;BME280;62755;-33.398;-70.572;2023-02-10T13:51:41;92903.03;;;27.00;29.98
74336;BME280;62755;-33.398;-70.572;2023-02-10T13:54:32;92909.88;;;27.12;30.83
74336;BME280;62755;-33.398;-70.572;2023-02-10T13:57:27;92911.13;;;27.11;30.13
74336;BME280;62755;-33.398;-70.572;2023-02-10T14:00:19;92913.38;;;27.31;29.86
74336;BME280;62755;-33.398;-70.572;2023-02-10T14:03:22;92917.53;;;27.56;30.08
74336;BME280;62755;-33.398;-70.572;2023-02-10T14:06:13;92911.13;;;27.48;28.94
74336;BME280;62755;-33.398;-70.572;2023-02-10T14:09:04;92914.09;;;27.50;29.34
74336;BME280;62755;-33.398;-70.572;2023-02-10T14:11:55;92919.28;;;27.72;29.69
74336;BME280;62755;-33.398;-70.572;2023-02-10T14:14:46;92912.44;;;27.60;29.82
74336;BME280;62755;-33.398;-70.572;2023-02-10T14:17:35;92913.66;;;27.65;29.70
74336;BME280;62755;-33.398;-70.572;2023-02-10T14:20:29;92914.44;;;27.60;30.92
74336;BME280;62755;-33.398;-70.572;2023-02-10T14:23:21;92910.53;;;27.55;31.17
74336;BME280;62755;-33.398;-70.572;2023-02-10T14:26:17;92909.91;;;27.62;30.65
74336;BME280;62755;-33.398;-70.572;2023-02-10T14:29:11;92912.28;;;27.71;29.91
74336;BME280;62755;-33.398;-70.572;2023-02-10T14:32:04;92897.44;;;27.61;29.97
74336;BME280;62755;-33.398;-70.572;2023-02-10T14:34:56;92912.75;;;27.89;29.74
74336;BME280;62755;-33.398;-70.572;2023-02-10T14:37:49;92914.78;;;27.88;29.78
74336;BME280;62755;-33.398;-70.572;2023-02-10T14:40:44;92921.34;;;27.85;30.08
74336;BME280;62755;-33.398;-70.572;2023-02-10T14:43:36;92915.66;;;27.96;29.99